^^
Saratoga-Weather Station Historical Data
Daily Summary for January 23, 2022 Units:  Metric    English   Both
Daily Weekly Monthly Yearly Custom
  High: Low: Average:
Temperature: 5.8 °C 3.5 °C 4.6 °C
Dew Point: 3.2 °C 1.4 °C 2.2 °C
Humidity: 91% 76% 85%
Wind Speed: 11.1km/h 0km/h 2.1km/h
Wind Gust: 14.5km/h - -
Wind- - ESE
Pressure: 1035.2 hPa 1032.8 hPa -
Precipitation: 0.0 mm    
Historical Graphs
 
 
Tabular Data for January 23, 2022
Time Temperature Dew Point Pressure Wind Wind Speed Wind Gust Humidity Rainfall Rate (Hourly) solar
00:03 4.5 °C 3.2 °C 1034.5 hPa West 3.2 km/h 4.8 km/h 91% 0.0 mm 0 W/m2
00:08 4.5 °C 3.2 °C 1034.5 hPa West 1.4 km/h 6.4 km/h 91% 0.0 mm 0 W/m2
00:13 4.5 °C 3.2 °C 1034.5 hPa WSW 4.7 km/h 8 km/h 91% 0.0 mm 0 W/m2
00:18 4.5 °C 3.2 °C 1034.5 hPa West 3.2 km/h 6.4 km/h 91% 0.0 mm 0 W/m2
00:23 4.5 °C 3.2 °C 1034.5 hPa West 1.4 km/h 8 km/h 91% 0.0 mm 0 W/m2
00:28 4.5 °C 3 °C 1034.5 hPa West 1.4 km/h 4.8 km/h 90% 0.0 mm 0 W/m2
00:33 4.5 °C 3 °C 1034.5 hPa WNW 3.2 km/h 8 km/h 90% 0.0 mm 0 W/m2
00:38 4.5 °C 3 °C 1034.5 hPa WNW 1.4 km/h 6.4 km/h 90% 0.0 mm 0 W/m2
00:43 4.5 °C 3 °C 1034.5 hPa West 1.4 km/h 6.4 km/h 90% 0.0 mm 0 W/m2
00:48 4.5 °C 3 °C 1034.5 hPa West 6.4 km/h 6.4 km/h 90% 0.0 mm 0 W/m2
00:53 4.5 °C 3 °C 1034.5 hPa West 1.4 km/h 3.2 km/h 90% 0.0 mm 0 W/m2
00:58 4.6 °C 3.1 °C 1034.5 hPa West 3.2 km/h 3.2 km/h 90% 0.0 mm 0 W/m2
01:03 4.6 °C 3.1 °C 1034.5 hPa Calm     90% 0.0 mm 0 W/m2
01:08 4.6 °C 3.1 °C 1034.5 hPa NW 1.4 km/h 1.6 km/h 90% 0.0 mm 0 W/m2
01:13 4.5 °C 3 °C 1034.5 hPa NW 1.4 km/h 3.2 km/h 90% 0.0 mm 0 W/m2
01:18 4.5 °C 3.2 °C 1034.5 hPa NW 1.4 km/h 4.8 km/h 91% 0.0 mm 0 W/m2
01:23 4.4 °C 3.1 °C 1034.5 hPa West 1.4 km/h 3.2 km/h 91% 0.0 mm 0 W/m2
01:28 4.4 °C 3.1 °C 1034.5 hPa West 1.4 km/h 3.2 km/h 91% 0.0 mm 0 W/m2
01:33 4.3 °C 3 °C 1034.5 hPa Calm   1.6 km/h 91% 0.0 mm 0 W/m2
01:38 4.3 °C 3 °C 1034.5 hPa Calm     91% 0.0 mm 0 W/m2
01:43 4.3 °C 3 °C 1034.5 hPa Calm   3.2 km/h 91% 0.0 mm 0 W/m2
01:48 4.3 °C 3 °C 1034.9 hPa Calm     91% 0.0 mm 0 W/m2
01:53 4.3 °C 3 °C 1034.9 hPa Calm   3.2 km/h 91% 0.0 mm 0 W/m2
01:58 4.3 °C 3 °C 1034.9 hPa Calm     91% 0.0 mm 0 W/m2
02:03 4.3 °C 3 °C 1034.9 hPa Calm   1.6 km/h 91% 0.0 mm 0 W/m2
02:08 4.3 °C 3 °C 1034.5 hPa Calm     91% 0.0 mm 0 W/m2
02:13 4.2 °C 2.9 °C 1034.5 hPa Calm     91% 0.0 mm 0 W/m2
02:18 4.2 °C 2.9 °C 1034.5 hPa Calm     91% 0.0 mm 0 W/m2
02:23 4.2 °C 2.9 °C 1034.5 hPa Calm     91% 0.0 mm 0 W/m2
02:28 4.2 °C 2.9 °C 1034.5 hPa Calm     91% 0.0 mm 0 W/m2
02:33 4.2 °C 2.9 °C 1034.5 hPa Calm     91% 0.0 mm 0 W/m2
02:38 4.1 °C 2.8 °C 1034.5 hPa Calm     91% 0.0 mm 0 W/m2
02:43 4.1 °C 2.8 °C 1034.5 hPa Calm     91% 0.0 mm 0 W/m2
02:48 4.1 °C 2.8 °C 1034.5 hPa Calm     91% 0.0 mm 0 W/m2
02:53 4 °C 2.7 °C 1034.5 hPa Calm     91% 0.0 mm 0 W/m2
02:58 4 °C 2.7 °C 1034.2 hPa Calm     91% 0.0 mm 0 W/m2
03:03 3.9 °C 2.6 °C 1034.2 hPa Calm     91% 0.0 mm 0 W/m2
03:08 3.9 °C 2.6 °C 1034.2 hPa Calm   3.2 km/h 91% 0.0 mm 0 W/m2
03:13 3.9 °C 2.6 °C 1034.5 hPa Calm     91% 0.0 mm 0 W/m2
03:18 3.9 °C 2.6 °C 1034.2 hPa Calm   3.2 km/h 91% 0.0 mm 0 W/m2
03:23 4 °C 2.7 °C 1034.5 hPa Calm     91% 0.0 mm 0 W/m2
03:28 4 °C 2.5 °C 1034.5 hPa Calm     90% 0.0 mm 0 W/m2
03:33 4 °C 2.5 °C 1034.2 hPa Calm     90% 0.0 mm 0 W/m2
03:38 4 °C 2.5 °C 1034.2 hPa Calm     90% 0.0 mm 0 W/m2
03:43 4 °C 2.5 °C 1034.2 hPa Calm     90% 0.0 mm 0 W/m2
03:48 4 °C 2.5 °C 1034.2 hPa Calm     90% 0.0 mm 0 W/m2
03:53 3.9 °C 2.4 °C 1034.2 hPa Calm     90% 0.0 mm 0 W/m2
03:58 3.9 °C 2.4 °C 1034.2 hPa Calm     90% 0.0 mm 0 W/m2
04:03 3.8 °C 2.3 °C 1033.9 hPa Calm     90% 0.0 mm 0 W/m2
04:08 3.8 °C 2.5 °C 1033.9 hPa Calm     91% 0.0 mm 0 W/m2
04:13 3.8 °C 2.5 °C 1033.9 hPa Calm     91% 0.0 mm 0 W/m2
04:18 3.7 °C 2.2 °C 1033.9 hPa Calm     90% 0.0 mm 0 W/m2
04:23 3.7 °C 2.4 °C 1033.9 hPa Calm     91% 0.0 mm 0 W/m2
04:28 3.7 °C 2.4 °C 1033.9 hPa Calm     91% 0.0 mm 0 W/m2
04:33 3.7 °C 2.4 °C 1033.9 hPa Calm     91% 0.0 mm 0 W/m2
04:38 3.6 °C 2.3 °C 1033.9 hPa Calm     91% 0.0 mm 0 W/m2
04:43 3.6 °C 2.3 °C 1033.9 hPa Calm     91% 0.0 mm 0 W/m2
04:48 3.6 °C 2.3 °C 1033.9 hPa Calm     91% 0.0 mm 0 W/m2
04:53 3.6 °C 2.3 °C 1033.9 hPa Calm     91% 0.0 mm 0 W/m2
04:58 3.6 °C 2.3 °C 1034.2 hPa Calm     91% 0.0 mm 0 W/m2
05:03 3.5 °C 2.2 °C 1034.2 hPa Calm     91% 0.0 mm 0 W/m2
05:08 3.5 °C 2.2 °C 1034.2 hPa WNW 3.2 km/h 3.2 km/h 91% 0.0 mm 0 W/m2
05:13 3.6 °C 2.3 °C 1034.2 hPa Calm     91% 0.0 mm 0 W/m2
05:18 3.6 °C 2.3 °C 1034.2 hPa Calm     91% 0.0 mm 0 W/m2
05:23 3.7 °C 2.4 °C 1034.2 hPa Calm     91% 0.0 mm 0 W/m2
05:28 3.7 °C 2.4 °C 1034.2 hPa WNW 1.4 km/h 1.6 km/h 91% 0.0 mm 0 W/m2
05:33 3.7 °C 2.2 °C 1034.2 hPa NW 1.4 km/h 1.6 km/h 90% 0.0 mm 0 W/m2
05:38 3.7 °C 2.2 °C 1034.2 hPa North 1.4 km/h 4.8 km/h 90% 0.0 mm 0 W/m2
05:43 3.8 °C 2.3 °C 1034.2 hPa Calm   3.2 km/h 90% 0.0 mm 0 W/m2
05:48 3.8 °C 2.2 °C 1034.2 hPa Calm   4.8 km/h 89% 0.0 mm 0 W/m2
05:53 3.8 °C 2.2 °C 1034.2 hPa Calm   3.2 km/h 89% 0.0 mm 0 W/m2
05:59 3.9 °C 2.3 °C 1034.2 hPa Calm     89% 0.0 mm 0 W/m2
06:04 3.9 °C 2.3 °C 1034.2 hPa Calm     89% 0.0 mm 0 W/m2
06:09 3.9 °C 2.3 °C 1034.2 hPa Calm     89% 0.0 mm 0 W/m2
06:14 3.9 °C 2.3 °C 1034.2 hPa Calm     89% 0.0 mm 0 W/m2
06:19 3.9 °C 2.3 °C 1034.2 hPa Calm     89% 0.0 mm 0 W/m2
06:24 3.8 °C 2.2 °C 1034.2 hPa Calm     89% 0.0 mm 0 W/m2
06:29 3.8 °C 2.2 °C 1034.2 hPa Calm     89% 0.0 mm 0 W/m2
06:34 3.8 °C 2.2 °C 1034.2 hPa Calm     89% 0.0 mm 0 W/m2
06:39 3.8 °C 2.2 °C 1034.2 hPa Calm     89% 0.0 mm 0 W/m2
06:44 3.7 °C 2.1 °C 1034.2 hPa Calm     89% 0.0 mm 0 W/m2
06:49 3.7 °C 2.2 °C 1034.2 hPa Calm     90% 0.0 mm 0 W/m2
06:54 3.6 °C 2.1 °C 1034.2 hPa Calm   3.2 km/h 90% 0.0 mm 0 W/m2
06:59 3.6 °C 2.1 °C 1034.2 hPa Calm     90% 0.0 mm 0 W/m2
07:04 3.6 °C 2.1 °C 1034.2 hPa Calm   3.2 km/h 90% 0.0 mm 0 W/m2
07:09 3.6 °C 2.1 °C 1034.2 hPa Calm     90% 0.0 mm 0 W/m2
07:14 3.6 °C 2.1 °C 1034.2 hPa Calm     90% 0.0 mm 0 W/m2
07:19 3.7 °C 2.2 °C 1034.5 hPa Calm     90% 0.0 mm 0 W/m2
07:24 3.6 °C 2.1 °C 1034.2 hPa Calm     90% 0.0 mm 0 W/m2
07:29 3.7 °C 2.2 °C 1034.2 hPa Calm     90% 0.0 mm 0 W/m2
07:34 3.7 °C 2.2 °C 1034.2 hPa Calm     90% 0.0 mm 0 W/m2
07:39 3.7 °C 2.2 °C 1034.5 hPa Calm     90% 0.0 mm 0 W/m2
07:44 3.7 °C 2.2 °C 1034.5 hPa Calm     90% 0.0 mm 0 W/m2
07:49 3.7 °C 2.2 °C 1034.5 hPa Calm     90% 0.0 mm 0 W/m2
07:54 3.7 °C 2.2 °C 1034.5 hPa Calm     90% 0.0 mm 0 W/m2
07:59 3.7 °C 2.2 °C 1034.9 hPa Calm     90% 0.0 mm 0 W/m2
08:04 3.7 °C 2.2 °C 1034.9 hPa NE 1.4 km/h 1.6 km/h 90% 0.0 mm 0 W/m2
08:09 3.7 °C 2.2 °C 1034.9 hPa Calm   1.6 km/h 90% 0.0 mm 0 W/m2
08:14 3.7 °C 2.2 °C 1034.9 hPa Calm     90% 0.0 mm 0 W/m2
08:19 3.7 °C 2.1 °C 1034.9 hPa Calm     89% 0.0 mm 0 W/m2
08:24 3.7 °C 2.1 °C 1034.9 hPa Calm   3.2 km/h 89% 0.0 mm 0 W/m2
08:29 3.7 °C 2.1 °C 1034.9 hPa NE 1.4 km/h 1.6 km/h 89% 0.0 mm 0 W/m2
08:34 3.7 °C 2.1 °C 1034.9 hPa Calm     89% 0.0 mm 0 W/m2
08:39 3.7 °C 2.1 °C 1035.2 hPa ENE 1.4 km/h 3.2 km/h 89% 0.0 mm 5 W/m2
08:44 3.8 °C 2.3 °C 1035.2 hPa Calm   3.2 km/h 90% 0.0 mm 7 W/m2
08:49 3.8 °C 2.3 °C 1035.2 hPa Calm     90% 0.0 mm 7 W/m2
08:54 3.8 °C 2.3 °C 1035.2 hPa Calm   3.2 km/h 90% 0.0 mm 9 W/m2
08:59 3.8 °C 2.3 °C 1035.2 hPa Calm     90% 0.0 mm 12 W/m2
09:04 3.8 °C 2.3 °C 1035.2 hPa Calm   3.2 km/h 90% 0.0 mm 14 W/m2
09:09 3.8 °C 2.3 °C 1035.2 hPa Calm   1.6 km/h 90% 0.0 mm 19 W/m2
09:14 3.8 °C 2.2 °C 1035.2 hPa Calm     89% 0.0 mm 19 W/m2
09:19 3.9 °C 2.3 °C 1035.2 hPa Calm   1.6 km/h 89% 0.0 mm 21 W/m2
09:24 3.9 °C 2.3 °C 1035.2 hPa ENE 1.4 km/h 3.2 km/h 89% 0.0 mm 21 W/m2
09:29 4 °C 2.4 °C 1035.2 hPa Calm     89% 0.0 mm 23 W/m2
09:34 4.1 °C 2.3 °C 1035.2 hPa Calm   3.2 km/h 88% 0.0 mm 26 W/m2
09:39 4.1 °C 2.3 °C 1035.2 hPa Calm   1.6 km/h 88% 0.0 mm 28 W/m2
09:44 4.2 °C 2.2 °C 1035.2 hPa Calm   1.6 km/h 87% 0.0 mm 32 W/m2
09:49 4.2 °C 2.2 °C 1035.2 hPa Calm     87% 0.0 mm 32 W/m2
09:54 4.3 °C 2.3 °C 1035.2 hPa Calm     87% 0.0 mm 33 W/m2
09:59 4.3 °C 2.2 °C 1035.2 hPa East 1.4 km/h 3.2 km/h 86% 0.0 mm 37 W/m2
10:04 4.4 °C 2.3 °C 1035.2 hPa Calm   4.8 km/h 86% 0.0 mm 42 W/m2
10:09 4.4 °C 2.3 °C 1035.2 hPa Calm     86% 0.0 mm 44 W/m2
10:14 4.5 °C 2.4 °C 1035.2 hPa Calm   3.2 km/h 86% 0.0 mm 51 W/m2
10:19 4.6 °C 2.5 °C 1035.2 hPa SE 4.7 km/h 4.8 km/h 86% 0.0 mm 51 W/m2
10:24 4.7 °C 2.4 °C 1035.2 hPa SE 4.7 km/h 6.4 km/h 85% 0.0 mm 49 W/m2
10:29 4.8 °C 2.3 °C 1035.2 hPa SSE 1.4 km/h 4.8 km/h 84% 0.0 mm 54 W/m2
10:34 4.8 °C 2.3 °C 1035.2 hPa ESE 3.2 km/h 6.4 km/h 84% 0.0 mm 62 W/m2
10:39 4.9 °C 2.3 °C 1035.2 hPa ESE 3.2 km/h 9.7 km/h 83% 0.0 mm 65 W/m2
10:44 5 °C 2.4 °C 1035.2 hPa East 1.4 km/h 4.8 km/h 83% 0.0 mm 72 W/m2
10:49 5.1 °C 2.5 °C 1035.2 hPa ESE 6.4 km/h 6.4 km/h 83% 0.0 mm 69 W/m2
10:54 5.2 °C 2.4 °C 1035.2 hPa Calm   4.8 km/h 82% 0.0 mm 77 W/m2
10:59 5.2 °C 2.4 °C 1035.2 hPa ESE 4.7 km/h 6.4 km/h 82% 0.0 mm 74 W/m2
11:04 5.2 °C 2.4 °C 1035.2 hPa Calm   4.8 km/h 82% 0.0 mm 70 W/m2
11:09 5.2 °C 2.4 °C 1035.2 hPa ESE 4.7 km/h 6.4 km/h 82% 0.0 mm 70 W/m2
11:14 5.2 °C 2.4 °C 1035.2 hPa SE 1.4 km/h 4.8 km/h 82% 0.0 mm 76 W/m2
11:19 5.3 °C 2.5 °C 1035.2 hPa East 3.2 km/h 3.2 km/h 82% 0.0 mm 76 W/m2
11:24 5.3 °C 2.5 °C 1035.2 hPa Calm   4.8 km/h 82% 0.0 mm 81 W/m2
11:29 5.3 °C 2.5 °C 1035.2 hPa ENE 1.4 km/h 4.8 km/h 82% 0.0 mm 83 W/m2
11:34 5.3 °C 2.5 °C 1035.2 hPa NE 4.7 km/h 4.8 km/h 82% 0.0 mm 83 W/m2
11:39 5.3 °C 2.5 °C 1035.2 hPa NE 4.7 km/h 6.4 km/h 82% 0.0 mm 83 W/m2
11:44 5.4 °C 2.6 °C 1035.2 hPa ENE 3.2 km/h 6.4 km/h 82% 0.0 mm 76 W/m2
11:49 5.4 °C 2.6 °C 1035.2 hPa ENE 1.4 km/h 4.8 km/h 82% 0.0 mm 77 W/m2
11:54 5.4 °C 2.7 °C 1035.2 hPa North 3.2 km/h 6.4 km/h 83% 0.0 mm 79 W/m2
11:59 5.4 °C 2.7 °C 1034.9 hPa NE 6.4 km/h 6.4 km/h 83% 0.0 mm 84 W/m2
12:04 5.4 °C 2.6 °C 1034.9 hPa ENE 1.4 km/h 6.4 km/h 82% 0.0 mm 86 W/m2
12:09 5.5 °C 2.7 °C 1034.9 hPa East 1.4 km/h 4.8 km/h 82% 0.0 mm 93 W/m2
12:14 5.5 °C 2.7 °C 1034.9 hPa East 3.2 km/h 6.4 km/h 82% 0.0 mm 97 W/m2
12:19 5.6 °C 2.8 °C 1034.5 hPa Calm   6.4 km/h 82% 0.0 mm 98 W/m2
12:24 5.6 °C 2.6 °C 1034.5 hPa ENE 1.4 km/h 6.4 km/h 81% 0.0 mm 93 W/m2
12:29 5.7 °C 2.7 °C 1034.9 hPa NE 1.4 km/h 4.8 km/h 81% 0.0 mm 90 W/m2
12:34 5.7 °C 2.7 °C 1034.5 hPa Calm   6.4 km/h 81% 0.0 mm 84 W/m2
12:39 5.8 °C 2.8 °C 1034.5 hPa East 1.4 km/h 4.8 km/h 81% 0.0 mm 86 W/m2
12:44 5.8 °C 2.6 °C 1034.5 hPa ESE 1.4 km/h 8 km/h 80% 0.0 mm 86 W/m2
12:49 5.8 °C 2.6 °C 1034.5 hPa Calm   4.8 km/h 80% 0.0 mm 90 W/m2
12:54 5.8 °C 2.6 °C 1034.5 hPa Calm   9.7 km/h 80% 0.0 mm 93 W/m2
13:00 5.8 °C 2.4 °C 1034.5 hPa East 4.7 km/h 6.4 km/h 79% 0.0 mm 93 W/m2
13:05 5.8 °C 2.6 °C 1034.5 hPa NE 1.4 km/h 9.7 km/h 80% 0.0 mm 90 W/m2
13:10 5.8 °C 2.6 °C 1034.5 hPa ENE 4.7 km/h 6.4 km/h 80% 0.0 mm 77 W/m2
13:15 5.7 °C 2.5 °C 1034.5 hPa Calm   8 km/h 80% 0.0 mm 88 W/m2
13:20 5.8 °C 2.6 °C 1034.2 hPa ESE 7.9 km/h 8 km/h 80% 0.0 mm 79 W/m2
13:25 5.8 °C 2.4 °C 1034.2 hPa ENE 4.7 km/h 8 km/h 79% 0.0 mm 77 W/m2
13:30 5.8 °C 2.4 °C 1034.2 hPa ENE 3.2 km/h 3.2 km/h 79% 0.0 mm 70 W/m2
13:35 5.8 °C 2.4 °C 1034.2 hPa East 1.4 km/h 8 km/h 79% 0.0 mm 62 W/m2
13:40 5.8 °C 2.3 °C 1034.2 hPa East 6.4 km/h 6.4 km/h 78% 0.0 mm 53 W/m2
13:45 5.8 °C 2.3 °C 1034.2 hPa East 3.2 km/h 8 km/h 78% 0.0 mm 54 W/m2
13:50 5.7 °C 2.2 °C 1034.2 hPa ESE 3.2 km/h 11.3 km/h 78% 0.0 mm 53 W/m2
13:55 5.7 °C 2.2 °C 1034.2 hPa ENE 4.7 km/h 8 km/h 78% 0.0 mm 49 W/m2
14:00 5.7 °C 2.2 °C 1033.9 hPa ESE 4.7 km/h 12.9 km/h 78% 0.0 mm 49 W/m2
14:05 5.6 °C 2.1 °C 1033.9 hPa East 6.4 km/h 6.4 km/h 78% 0.0 mm 44 W/m2
14:10 5.6 °C 2.2 °C 1033.9 hPa ENE 3.2 km/h 9.7 km/h 79% 0.0 mm 42 W/m2
14:15 5.6 °C 2.2 °C 1033.9 hPa Calm   9.7 km/h 79% 0.0 mm 46 W/m2
14:20 5.5 °C 2.1 °C 1033.9 hPa SE 7.9 km/h 8 km/h 79% 0.0 mm 51 W/m2
14:25 5.6 °C 2.4 °C 1033.9 hPa ESE 1.4 km/h 8 km/h 80% 0.0 mm 65 W/m2
14:30 5.6 °C 2.1 °C 1033.9 hPa SE 6.4 km/h 6.4 km/h 78% 0.0 mm 84 W/m2
14:35 5.6 °C 1.9 °C 1033.9 hPa SE 3.2 km/h 11.3 km/h 77% 0.0 mm 76 W/m2
14:40 5.6 °C 1.9 °C 1033.5 hPa Calm   4.8 km/h 77% 0.0 mm 70 W/m2
14:45 5.7 °C 2 °C 1033.5 hPa East 1.4 km/h 6.4 km/h 77% 0.0 mm 62 W/m2
14:50 5.7 °C 2 °C 1033.5 hPa ENE 7.9 km/h 9.7 km/h 77% 0.0 mm 54 W/m2
14:55 5.7 °C 1.8 °C 1033.9 hPa ENE 3.2 km/h 4.8 km/h 76% 0.0 mm 53 W/m2
15:00 5.7 °C 2 °C 1033.9 hPa ENE 4.7 km/h 6.4 km/h 77% 0.0 mm 51 W/m2
15:05 5.7 °C 2 °C 1033.5 hPa SE 3.2 km/h 4.8 km/h 77% 0.0 mm 47 W/m2
15:10 5.7 °C 2 °C 1033.5 hPa ENE 1.4 km/h 9.7 km/h 77% 0.0 mm 44 W/m2
15:15 5.7 °C 2.2 °C 1033.5 hPa ESE 3.2 km/h 4.8 km/h 78% 0.0 mm 42 W/m2
15:20 5.6 °C 2.1 °C 1033.5 hPa ENE 4.7 km/h 11.3 km/h 78% 0.0 mm 39 W/m2
15:25 5.6 °C 2.1 °C 1033.5 hPa ENE 6.4 km/h 6.4 km/h 78% 0.0 mm 39 W/m2
15:30 5.6 °C 2.1 °C 1033.5 hPa East 3.2 km/h 8 km/h 78% 0.0 mm 39 W/m2
15:35 5.6 °C 2.1 °C 1033.5 hPa ENE 7.9 km/h 8 km/h 78% 0.0 mm 37 W/m2
15:40 5.5 °C 2.1 °C 1033.5 hPa ENE 4.7 km/h 4.8 km/h 79% 0.0 mm 35 W/m2
15:45 5.5 °C 2.1 °C 1033.5 hPa NE 3.2 km/h 4.8 km/h 79% 0.0 mm 32 W/m2
15:50 5.5 °C 2.1 °C 1033.5 hPa Calm   4.8 km/h 79% 0.0 mm 33 W/m2
15:55 5.4 °C 2.1 °C 1033.5 hPa East 1.4 km/h 6.4 km/h 79% 0.0 mm 30 W/m2
16:01 5.4 °C 2.1 °C 1033.5 hPa NE 6.4 km/h 6.4 km/h 79% 0.0 mm 28 W/m2
16:06 5.4 °C 2.1 °C 1033.5 hPa ENE 4.7 km/h 6.4 km/h 79% 0.0 mm 23 W/m2
16:11 5.4 °C 2.1 °C 1033.5 hPa ENE 3.2 km/h 6.4 km/h 79% 0.0 mm 21 W/m2
16:16 5.3 °C 2 °C 1033.5 hPa NE 11.1 km/h 14.5 km/h 79% 0.0 mm 19 W/m2
16:21 5.3 °C 2 °C 1033.5 hPa NE 6.4 km/h 11.3 km/h 79% 0.0 mm 18 W/m2
16:26 5.3 °C 2 °C 1033.5 hPa NE 6.4 km/h 14.5 km/h 79% 0.0 mm 18 W/m2
16:31 5.3 °C 2 °C 1033.5 hPa East 1.4 km/h 6.4 km/h 79% 0.0 mm 14 W/m2
16:36 5.3 °C 2 °C 1033.5 hPa ENE 4.7 km/h 6.4 km/h 79% 0.0 mm 12 W/m2
16:41 5.3 °C 2 °C 1033.5 hPa NE 4.7 km/h 8 km/h 79% 0.0 mm 11 W/m2
16:46 5.2 °C 1.9 °C 1033.2 hPa East 4.7 km/h 6.4 km/h 79% 0.0 mm 9 W/m2
16:51 5.2 °C 2 °C 1033.2 hPa ESE 6.4 km/h 11.3 km/h 80% 0.0 mm 9 W/m2
16:56 5.1 °C 1.9 °C 1033.2 hPa Calm   8 km/h 80% 0.0 mm 7 W/m2
17:01 5.1 °C 1.9 °C 1033.2 hPa NE 4.7 km/h 6.4 km/h 80% 0.0 mm 7 W/m2
17:06 5 °C 1.8 °C 1033.2 hPa East 1.4 km/h 8 km/h 80% 0.0 mm 5 W/m2
17:11 5 °C 1.8 °C 1033.2 hPa ESE 3.2 km/h 6.4 km/h 80% 0.0 mm 0 W/m2
17:16 4.9 °C 1.7 °C 1033.2 hPa SE 3.2 km/h 6.4 km/h 80% 0.0 mm 0 W/m2
17:21 4.9 °C 1.9 °C 1033.2 hPa SSE 3.2 km/h 6.4 km/h 81% 0.0 mm 0 W/m2
17:26 4.9 °C 1.9 °C 1033.2 hPa ESE 1.4 km/h 9.7 km/h 81% 0.0 mm 0 W/m2
17:31 4.8 °C 1.8 °C 1033.2 hPa East 1.4 km/h 4.8 km/h 81% 0.0 mm 0 W/m2
17:36 4.8 °C 1.8 °C 1033.2 hPa ENE 1.4 km/h 9.7 km/h 81% 0.0 mm 0 W/m2
17:41 4.8 °C 1.8 °C 1033.2 hPa ESE 1.4 km/h 3.2 km/h 81% 0.0 mm 0 W/m2
17:46 4.8 °C 2 °C 1033.5 hPa NE 1.4 km/h 3.2 km/h 82% 0.0 mm 0 W/m2
17:51 4.8 °C 2 °C 1033.5 hPa East 1.4 km/h 1.6 km/h 82% 0.0 mm 0 W/m2
17:56 4.8 °C 2 °C 1033.5 hPa ESE 4.7 km/h 9.7 km/h 82% 0.0 mm 0 W/m2
18:01 4.8 °C 2 °C 1033.2 hPa Calm   3.2 km/h 82% 0.0 mm 0 W/m2
18:06 4.7 °C 1.7 °C 1033.2 hPa NE 1.4 km/h 9.7 km/h 81% 0.0 mm 0 W/m2
18:11 4.7 °C 1.7 °C 1033.2 hPa ENE 3.2 km/h 6.4 km/h 81% 0.0 mm 0 W/m2
18:16 4.8 °C 1.8 °C 1033.2 hPa East 4.7 km/h 11.3 km/h 81% 0.0 mm 0 W/m2
18:21 4.7 °C 1.7 °C 1033.2 hPa East 1.4 km/h 3.2 km/h 81% 0.0 mm 0 W/m2
18:26 4.7 °C 1.7 °C 1033.2 hPa East 6.4 km/h 6.4 km/h 81% 0.0 mm 0 W/m2
18:31 4.7 °C 1.7 °C 1033.2 hPa ESE 4.7 km/h 4.8 km/h 81% 0.0 mm 0 W/m2
18:36 4.7 °C 1.9 °C 1033.2 hPa NE 1.4 km/h 4.8 km/h 82% 0.0 mm 0 W/m2
18:41 4.7 °C 1.9 °C 1033.2 hPa East 3.2 km/h 4.8 km/h 82% 0.0 mm 0 W/m2
18:46 4.6 °C 1.8 °C 1033.2 hPa ENE 3.2 km/h 9.7 km/h 82% 0.0 mm 0 W/m2
18:51 4.6 °C 1.8 °C 1033.2 hPa East 4.7 km/h 6.4 km/h 82% 0.0 mm 0 W/m2
18:56 4.6 °C 1.8 °C 1033.2 hPa ESE 3.2 km/h 9.7 km/h 82% 0.0 mm 0 W/m2
19:01 4.6 °C 1.8 °C 1033.2 hPa ESE 1.4 km/h 4.8 km/h 82% 0.0 mm 0 W/m2
19:06 4.6 °C 1.8 °C 1033.2 hPa East 4.7 km/h 11.3 km/h 82% 0.0 mm 0 W/m2
19:11 4.6 °C 1.8 °C 1033.2 hPa East 1.4 km/h 4.8 km/h 82% 0.0 mm 0 W/m2
19:16 4.6 °C 1.8 °C 1033.2 hPa ESE 1.4 km/h 11.3 km/h 82% 0.0 mm 0 W/m2
19:21 4.6 °C 1.8 °C 1033.2 hPa ESE 1.4 km/h 4.8 km/h 82% 0.0 mm 0 W/m2
19:26 4.7 °C 1.9 °C 1033.2 hPa ENE 3.2 km/h 4.8 km/h 82% 0.0 mm 0 W/m2
19:31 4.7 °C 1.9 °C 1033.2 hPa ESE 3.2 km/h 6.4 km/h 82% 0.0 mm 0 W/m2
19:36 4.7 °C 1.9 °C 1033.2 hPa SE 4.7 km/h 9.7 km/h 82% 0.0 mm 0 W/m2
19:41 4.7 °C 1.9 °C 1033.2 hPa ESE 4.7 km/h 6.4 km/h 82% 0.0 mm 0 W/m2
19:46 4.7 °C 1.9 °C 1033.2 hPa East 3.2 km/h 9.7 km/h 82% 0.0 mm 0 W/m2
19:51 4.8 °C 2 °C 1033.2 hPa ESE 1.4 km/h 4.8 km/h 82% 0.0 mm 0 W/m2
19:56 4.8 °C 2 °C 1033.2 hPa ESE 3.2 km/h 4.8 km/h 82% 0.0 mm 0 W/m2
20:01 4.8 °C 2 °C 1033.2 hPa ESE 1.4 km/h 4.8 km/h 82% 0.0 mm 0 W/m2
20:06 4.8 °C 2 °C 1033.2 hPa ESE 1.4 km/h 3.2 km/h 82% 0.0 mm 0 W/m2
20:11 4.8 °C 2 °C 1033.2 hPa ENE 1.4 km/h 6.4 km/h 82% 0.0 mm 0 W/m2
20:16 4.8 °C 2 °C 1033.2 hPa ESE 1.4 km/h 3.2 km/h 82% 0.0 mm 0 W/m2
20:21 4.8 °C 2 °C 1033.2 hPa ESE 3.2 km/h 3.2 km/h 82% 0.0 mm 0 W/m2
20:26 4.8 °C 2 °C 1033.2 hPa Calm   4.8 km/h 82% 0.0 mm 0 W/m2
20:31 4.8 °C 2 °C 1033.2 hPa East 3.2 km/h 3.2 km/h 82% 0.0 mm 0 W/m2
20:36 4.8 °C 2 °C 1033.2 hPa Calm   6.4 km/h 82% 0.0 mm 0 W/m2
20:41 4.8 °C 2 °C 1033.2 hPa ESE 1.4 km/h 11.3 km/h 82% 0.0 mm 0 W/m2
20:46 4.8 °C 2 °C 1033.2 hPa ESE 3.2 km/h 6.4 km/h 82% 0.0 mm 0 W/m2
20:51 4.8 °C 2 °C 1033.5 hPa ESE 6.4 km/h 6.4 km/h 82% 0.0 mm 0 W/m2
20:56 4.8 °C 2 °C 1033.5 hPa Calm   6.4 km/h 82% 0.0 mm 0 W/m2
21:01 4.8 °C 2 °C 1033.2 hPa East 3.2 km/h 9.7 km/h 82% 0.0 mm 0 W/m2
21:06 4.9 °C 2.1 °C 1033.2 hPa East 1.4 km/h 4.8 km/h 82% 0.0 mm 0 W/m2
21:11 4.9 °C 2.1 °C 1033.2 hPa East 1.4 km/h 6.4 km/h 82% 0.0 mm 0 W/m2
21:16 4.9 °C 2.1 °C 1033.2 hPa ESE 3.2 km/h 4.8 km/h 82% 0.0 mm 0 W/m2
21:21 4.9 °C 2.1 °C 1033.2 hPa Calm   4.8 km/h 82% 0.0 mm 0 W/m2
21:26 4.9 °C 2.1 °C 1033.2 hPa ESE 1.4 km/h 6.4 km/h 82% 0.0 mm 0 W/m2
21:31 4.9 °C 2.1 °C 1033.2 hPa East 1.4 km/h 6.4 km/h 82% 0.0 mm 0 W/m2
21:37 4.9 °C 2.1 °C 1033.2 hPa East 3.2 km/h 4.8 km/h 82% 0.0 mm 0 W/m2
21:42 4.9 °C 2.1 °C 1033.2 hPa ENE 3.2 km/h 6.4 km/h 82% 0.0 mm 0 W/m2
21:47 4.9 °C 2.1 °C 1033.2 hPa East 3.2 km/h 9.7 km/h 82% 0.0 mm 0 W/m2
21:52 4.8 °C 2 °C 1033.2 hPa ESE 4.7 km/h 11.3 km/h 82% 0.0 mm 0 W/m2
21:57 4.8 °C 2 °C 1033.2 hPa East 3.2 km/h 4.8 km/h 82% 0.0 mm 0 W/m2
22:02 4.8 °C 2 °C 1033.2 hPa ESE 3.2 km/h 6.4 km/h 82% 0.0 mm 0 W/m2
22:07 4.8 °C 1.8 °C 1033.2 hPa ESE 4.7 km/h 6.4 km/h 81% 0.0 mm 0 W/m2
22:12 4.8 °C 1.8 °C 1033.2 hPa ESE 4.7 km/h 11.3 km/h 81% 0.0 mm 0 W/m2
22:17 4.8 °C 2 °C 1033.2 hPa NE 1.4 km/h 4.8 km/h 82% 0.0 mm 0 W/m2
22:22 4.8 °C 1.8 °C 1033.2 hPa East 4.7 km/h 11.3 km/h 81% 0.0 mm 0 W/m2
22:27 4.8 °C 1.8 °C 1033.2 hPa ESE 3.2 km/h 6.4 km/h 81% 0.0 mm 0 W/m2
22:32 4.8 °C 1.8 °C 1033.2 hPa East 6.4 km/h 11.3 km/h 81% 0.0 mm 0 W/m2
22:37 4.8 °C 1.8 °C 1033.2 hPa ESE 4.7 km/h 6.4 km/h 81% 0.0 mm 0 W/m2
22:42 4.8 °C 1.8 °C 1033.5 hPa East 3.2 km/h 11.3 km/h 81% 0.0 mm 0 W/m2
22:47 4.8 °C 1.8 °C 1033.5 hPa East 6.4 km/h 6.4 km/h 81% 0.0 mm 0 W/m2
22:52 4.7 °C 1.7 °C 1033.2 hPa ESE 3.2 km/h 11.3 km/h 81% 0.0 mm 0 W/m2
22:57 4.7 °C 1.7 °C 1033.2 hPa ENE 9.7 km/h 9.7 km/h 81% 0.0 mm 0 W/m2
23:02 4.6 °C 1.6 °C 1033.2 hPa ESE 4.7 km/h 14.5 km/h 81% 0.0 mm 0 W/m2
23:07 4.6 °C 1.6 °C 1033.5 hPa East 4.7 km/h 9.7 km/h 81% 0.0 mm 0 W/m2
23:12 4.5 °C 1.5 °C 1033.2 hPa ESE 3.2 km/h 14.5 km/h 81% 0.0 mm 0 W/m2
23:17 4.3 °C 1.5 °C 1033.2 hPa ESE 3.2 km/h 4.8 km/h 82% 0.0 mm 0 W/m2
23:22 4.3 °C 1.5 °C 1033.2 hPa East 4.7 km/h 9.7 km/h 82% 0.0 mm 0 W/m2
23:27 4.2 °C 1.4 °C 1033.2 hPa East 9.7 km/h 11.3 km/h 82% 0.0 mm 0 W/m2
23:32 4.2 °C 1.4 °C 1033.2 hPa ENE 3.2 km/h 9.7 km/h 82% 0.0 mm 0 W/m2
23:37 4.2 °C 1.4 °C 1033.2 hPa SE 3.2 km/h 8 km/h 82% 0.0 mm 0 W/m2
23:42 4.2 °C 1.4 °C 1033.2 hPa ESE 4.7 km/h 9.7 km/h 82% 0.0 mm 0 W/m2
23:47 4.2 °C 1.4 °C 1033.2 hPa ESE 6.4 km/h 11.3 km/h 82% 0.0 mm 0 W/m2
23:52 4.2 °C 1.4 °C 1032.8 hPa ESE 9.7 km/h 9.7 km/h 82% 0.0 mm 0 W/m2
23:57 4.2 °C 1.4 °C 1032.8 hPa ESE 3.2 km/h 6.4 km/h 82% 0.0 mm 0 W/m2
Juneau County Weather
Compliments of Weather Underground - 4 mb